sensor_id;sensor_type;location;lat;lon;timestamp;P1;durP1;ratioP1;P2;durP2;ratioP2
59571;SDS011;59406;45.602;11.904;2022-12-18T00:01:30;8.82;;;4.97;;
59571;SDS011;59406;45.602;11.904;2022-12-18T00:03:58;9.77;;;4.57;;
59571;SDS011;59406;45.602;11.904;2022-12-18T00:06:26;8.70;;;4.40;;
59571;SDS011;59406;45.602;11.904;2022-12-18T00:08:53;8.65;;;3.80;;
59571;SDS011;59406;45.602;11.904;2022-12-18T00:11:21;8.20;;;4.07;;
59571;SDS011;59406;45.602;11.904;2022-12-18T00:13:48;8.95;;;4.72;;
59571;SDS011;59406;45.602;11.904;2022-12-18T00:16:16;8.00;;;4.50;;
59571;SDS011;59406;45.602;11.904;2022-12-18T00:18:45;8.20;;;4.07;;
59571;SDS011;59406;45.602;11.904;2022-12-18T00:21:13;9.07;;;4.18;;
59571;SDS011;59406;45.602;11.904;2022-12-18T00:23:39;8.43;;;3.90;;
59571;SDS011;59406;45.602;11.904;2022-12-18T00:26:10;9.82;;;4.40;;
59571;SDS011;59406;45.602;11.904;2022-12-18T00:28:37;9.47;;;4.90;;
59571;SDS011;59406;45.602;11.904;2022-12-18T00:31:04;9.48;;;4.47;;
59571;SDS011;59406;45.602;11.904;2022-12-18T00:33:32;9.32;;;4.35;;
59571;SDS011;59406;45.602;11.904;2022-12-18T00:36:04;9.18;;;4.65;;
59571;SDS011;59406;45.602;11.904;2022-12-18T00:38:31;8.60;;;4.78;;
59571;SDS011;59406;45.602;11.904;2022-12-18T00:40:57;8.67;;;4.27;;
59571;SDS011;59406;45.602;11.904;2022-12-18T00:43:23;10.27;;;4.88;;
59571;SDS011;59406;45.602;11.904;2022-12-18T00:45:49;11.50;;;4.53;;
59571;SDS011;59406;45.602;11.904;2022-12-18T00:48:15;11.95;;;5.00;;
59571;SDS011;59406;45.602;11.904;2022-12-18T00:50:41;12.53;;;4.97;;
59571;SDS011;59406;45.602;11.904;2022-12-18T00:53:07;10.57;;;5.00;;
59571;SDS011;59406;45.602;11.904;2022-12-18T00:55:34;10.25;;;5.00;;
59571;SDS011;59406;45.602;11.904;2022-12-18T00:58:00;9.48;;;4.55;;
59571;SDS011;59406;45.602;11.904;2022-12-18T01:00:26;10.67;;;4.80;;
59571;SDS011;59406;45.602;11.904;2022-12-18T01:02:52;10.48;;;4.68;;
59571;SDS011;59406;45.602;11.904;2022-12-18T01:05:17;10.55;;;5.18;;
59571;SDS011;59406;45.602;11.904;2022-12-18T01:07:43;10.77;;;5.00;;
59571;SDS011;59406;45.602;11.904;2022-12-18T01:10:10;8.83;;;4.50;;
59571;SDS011;59406;45.602;11.904;2022-12-18T01:12:38;8.65;;;4.55;;
59571;SDS011;59406;45.602;11.904;2022-12-18T01:15:05;9.57;;;4.60;;
59571;SDS011;59406;45.602;11.904;2022-12-18T01:17:32;7.85;;;3.85;;
59571;SDS011;59406;45.602;11.904;2022-12-18T01:19:58;8.90;;;4.07;;
59571;SDS011;59406;45.602;11.904;2022-12-18T01:22:24;10.97;;;4.67;;
59571;SDS011;59406;45.602;11.904;2022-12-18T01:24:50;10.05;;;4.72;;
59571;SDS011;59406;45.602;11.904;2022-12-18T01:27:16;11.40;;;4.47;;
59571;SDS011;59406;45.602;11.904;2022-12-18T01:29:42;7.90;;;3.88;;
59571;SDS011;59406;45.602;11.904;2022-12-18T01:32:08;8.17;;;4.40;;
59571;SDS011;59406;45.602;11.904;2022-12-18T01:34:35;8.85;;;4.60;;
59571;SDS011;59406;45.602;11.904;2022-12-18T01:37:05;9.68;;;4.25;;
59571;SDS011;59406;45.602;11.904;2022-12-18T01:39:31;10.25;;;4.50;;
59571;SDS011;59406;45.602;11.904;2022-12-18T01:41:58;8.32;;;3.70;;
59571;SDS011;59406;45.602;11.904;2022-12-18T01:49:56;9.88;;;4.53;;
59571;SDS011;59406;45.602;11.904;2022-12-18T01:52:24;8.07;;;3.70;;
59571;SDS011;59406;45.602;11.904;2022-12-18T01:54:53;7.00;;;3.22;;
59571;SDS011;59406;45.602;11.904;2022-12-18T01:57:20;7.87;;;4.03;;
59571;SDS011;59406;45.602;11.904;2022-12-18T01:59:49;7.53;;;3.25;;
59571;SDS011;59406;45.602;11.904;2022-12-18T02:02:18;8.20;;;3.85;;
59571;SDS011;59406;45.602;11.904;2022-12-18T02:04:45;6.82;;;3.30;;
59571;SDS011;59406;45.602;11.904;2022-12-18T02:12:39;8.98;;;4.40;;
59571;SDS011;59406;45.602;11.904;2022-12-18T02:15:19;8.00;;;3.90;;
59571;SDS011;59406;45.602;11.904;2022-12-18T02:18:19;9.75;;;4.43;;
59571;SDS011;59406;45.602;11.904;2022-12-18T02:20:50;9.20;;;4.70;;
59571;SDS011;59406;45.602;11.904;2022-12-18T02:28:55;8.80;;;3.97;;
59571;SDS011;59406;45.602;11.904;2022-12-18T02:31:27;7.30;;;3.28;;
59571;SDS011;59406;45.602;11.904;2022-12-18T02:33:58;8.93;;;3.63;;
59571;SDS011;59406;45.602;11.904;2022-12-18T02:36:27;9.67;;;4.30;;
59571;SDS011;59406;45.602;11.904;2022-12-18T02:38:54;9.10;;;4.03;;
59571;SDS011;59406;45.602;11.904;2022-12-18T02:41:21;9.43;;;4.15;;
59571;SDS011;59406;45.602;11.904;2022-12-18T02:43:49;7.60;;;3.03;;
59571;SDS011;59406;45.602;11.904;2022-12-18T02:48:57;7.13;;;3.60;;
59571;SDS011;59406;45.602;11.904;2022-12-18T02:52:01;7.88;;;3.65;;
59571;SDS011;59406;45.602;11.904;2022-12-18T02:57:22;7.22;;;3.08;;
59571;SDS011;59406;45.602;11.904;2022-12-18T03:00:09;7.25;;;3.20;;
59571;SDS011;59406;45.602;11.904;2022-12-18T03:05:17;6.22;;;2.20;;
59571;SDS011;59406;45.602;11.904;2022-12-18T03:07:57;8.23;;;3.15;;
59571;SDS011;59406;45.602;11.904;2022-12-18T03:10:45;9.35;;;3.55;;
59571;SDS011;59406;45.602;11.904;2022-12-18T03:13:28;7.53;;;2.97;;
59571;SDS011;59406;45.602;11.904;2022-12-18T03:15:56;8.10;;;3.40;;
59571;SDS011;59406;45.602;11.904;2022-12-18T03:18:26;9.45;;;4.15;;
59571;SDS011;59406;45.602;11.904;2022-12-18T03:20:59;7.50;;;3.38;;
59571;SDS011;59406;45.602;11.904;2022-12-18T03:23:31;9.20;;;4.28;;
59571;SDS011;59406;45.602;11.904;2022-12-18T03:26:01;8.30;;;3.63;;
59571;SDS011;59406;45.602;11.904;2022-12-18T03:28:30;8.20;;;3.83;;
59571;SDS011;59406;45.602;11.904;2022-12-18T03:31:00;8.30;;;3.10;;
59571;SDS011;59406;45.602;11.904;2022-12-18T03:36:13;8.65;;;3.80;;
59571;SDS011;59406;45.602;11.904;2022-12-18T03:38:39;7.47;;;3.83;;
59571;SDS011;59406;45.602;11.904;2022-12-18T03:43:54;8.85;;;4.05;;
59571;SDS011;59406;45.602;11.904;2022-12-18T03:55:16;8.37;;;3.83;;
59571;SDS011;59406;45.602;11.904;2022-12-18T03:57:44;8.65;;;3.30;;
59571;SDS011;59406;45.602;11.904;2022-12-18T04:00:13;9.02;;;4.05;;
59571;SDS011;59406;45.602;11.904;2022-12-18T04:02:45;7.50;;;2.97;;
59571;SDS011;59406;45.602;11.904;2022-12-18T04:05:14;6.85;;;2.97;;
59571;SDS011;59406;45.602;11.904;2022-12-18T04:07:42;7.23;;;2.83;;
59571;SDS011;59406;45.602;11.904;2022-12-18T04:10:10;8.73;;;3.20;;
59571;SDS011;59406;45.602;11.904;2022-12-18T04:12:37;9.48;;;3.67;;
59571;SDS011;59406;45.602;11.904;2022-12-18T04:15:03;7.00;;;3.22;;
59571;SDS011;59406;45.602;11.904;2022-12-18T04:17:30;8.73;;;3.10;;
59571;SDS011;59406;45.602;11.904;2022-12-18T04:19:56;9.03;;;4.27;;
59571;SDS011;59406;45.602;11.904;2022-12-18T04:22:21;6.80;;;3.13;;
59571;SDS011;59406;45.602;11.904;2022-12-18T04:24:47;6.63;;;2.80;;
59571;SDS011;59406;45.602;11.904;2022-12-18T04:27:13;7.70;;;3.35;;
59571;SDS011;59406;45.602;11.904;2022-12-18T04:29:39;7.93;;;2.90;;
59571;SDS011;59406;45.602;11.904;2022-12-18T04:32:05;7.23;;;2.60;;
59571;SDS011;59406;45.602;11.904;2022-12-18T04:34:31;8.05;;;3.35;;
59571;SDS011;59406;45.602;11.904;2022-12-18T04:36:56;9.18;;;3.80;;
59571;SDS011;59406;45.602;11.904;2022-12-18T04:39:22;8.30;;;3.43;;
59571;SDS011;59406;45.602;11.904;2022-12-18T04:41:48;8.25;;;3.90;;
59571;SDS011;59406;45.602;11.904;2022-12-18T04:44:14;8.02;;;3.55;;
59571;SDS011;59406;45.602;11.904;2022-12-18T04:46:40;8.63;;;3.70;;
59571;SDS011;59406;45.602;11.904;2022-12-18T04:49:06;8.13;;;3.17;;
59571;SDS011;59406;45.602;11.904;2022-12-18T04:51:32;10.60;;;4.03;;
59571;SDS011;59406;45.602;11.904;2022-12-18T04:53:57;8.40;;;3.37;;
59571;SDS011;59406;45.602;11.904;2022-12-18T04:56:23;9.75;;;4.50;;
59571;SDS011;59406;45.602;11.904;2022-12-18T04:58:49;9.30;;;4.22;;
59571;SDS011;59406;45.602;11.904;2022-12-18T05:01:16;9.67;;;4.17;;
59571;SDS011;59406;45.602;11.904;2022-12-18T05:03:42;7.95;;;3.45;;
59571;SDS011;59406;45.602;11.904;2022-12-18T05:06:09;9.70;;;4.18;;
59571;SDS011;59406;45.602;11.904;2022-12-18T05:08:35;11.27;;;5.30;;
59571;SDS011;59406;45.602;11.904;2022-12-18T05:11:12;10.20;;;4.40;;
59571;SDS011;59406;45.602;11.904;2022-12-18T05:13:41;9.70;;;4.35;;
59571;SDS011;59406;45.602;11.904;2022-12-18T05:16:08;10.15;;;4.43;;
59571;SDS011;59406;45.602;11.904;2022-12-18T05:18:34;8.77;;;3.65;;
59571;SDS011;59406;45.602;11.904;2022-12-18T05:21:00;9.00;;;3.70;;
59571;SDS011;59406;45.602;11.904;2022-12-18T05:23:26;8.70;;;4.87;;
59571;SDS011;59406;45.602;11.904;2022-12-18T05:25:53;11.50;;;4.82;;
59571;SDS011;59406;45.602;11.904;2022-12-18T05:28:21;8.95;;;3.83;;
59571;SDS011;59406;45.602;11.904;2022-12-18T05:30:49;7.95;;;3.63;;
59571;SDS011;59406;45.602;11.904;2022-12-18T05:33:16;8.40;;;3.42;;
59571;SDS011;59406;45.602;11.904;2022-12-18T05:35:42;8.93;;;3.40;;
59571;SDS011;59406;45.602;11.904;2022-12-18T05:38:08;8.20;;;3.30;;
59571;SDS011;59406;45.602;11.904;2022-12-18T05:40:34;8.82;;;3.08;;
59571;SDS011;59406;45.602;11.904;2022-12-18T05:43:02;10.52;;;4.85;;
59571;SDS011;59406;45.602;11.904;2022-12-18T05:45:30;10.57;;;4.90;;
59571;SDS011;59406;45.602;11.904;2022-12-18T05:47:56;11.93;;;5.50;;
59571;SDS011;59406;45.602;11.904;2022-12-18T05:50:22;10.55;;;4.65;;
59571;SDS011;59406;45.602;11.904;2022-12-18T05:52:48;10.43;;;4.77;;
59571;SDS011;59406;45.602;11.904;2022-12-18T05:55:14;8.50;;;3.70;;
59571;SDS011;59406;45.602;11.904;2022-12-18T05:57:40;9.02;;;3.80;;
59571;SDS011;59406;45.602;11.904;2022-12-18T06:00:06;9.98;;;4.65;;
59571;SDS011;59406;45.602;11.904;2022-12-18T06:02:32;8.38;;;3.38;;
59571;SDS011;59406;45.602;11.904;2022-12-18T06:04:58;9.63;;;4.30;;
59571;SDS011;59406;45.602;11.904;2022-12-18T06:07:24;9.30;;;3.85;;
59571;SDS011;59406;45.602;11.904;2022-12-18T06:09:50;10.45;;;4.03;;
59571;SDS011;59406;45.602;11.904;2022-12-18T06:12:16;9.63;;;3.97;;
59571;SDS011;59406;45.602;11.904;2022-12-18T06:14:42;10.18;;;4.13;;
59571;SDS011;59406;45.602;11.904;2022-12-18T06:17:08;10.60;;;5.20;;
59571;SDS011;59406;45.602;11.904;2022-12-18T06:19:34;9.93;;;4.75;;
59571;SDS011;59406;45.602;11.904;2022-12-18T06:22:00;11.30;;;4.97;;
59571;SDS011;59406;45.602;11.904;2022-12-18T06:24:26;9.57;;;4.53;;
59571;SDS011;59406;45.602;11.904;2022-12-18T06:26:52;10.80;;;4.82;;
59571;SDS011;59406;45.602;11.904;2022-12-18T06:29:18;9.43;;;4.95;;
59571;SDS011;59406;45.602;11.904;2022-12-18T06:31:44;11.57;;;5.10;;
59571;SDS011;59406;45.602;11.904;2022-12-18T06:34:09;9.95;;;5.25;;
59571;SDS011;59406;45.602;11.904;2022-12-18T06:36:35;11.97;;;5.53;;
59571;SDS011;59406;45.602;11.904;2022-12-18T06:39:01;11.50;;;5.55;;
59571;SDS011;59406;45.602;11.904;2022-12-18T06:41:27;10.98;;;5.00;;
59571;SDS011;59406;45.602;11.904;2022-12-18T06:43:53;11.67;;;5.77;;
59571;SDS011;59406;45.602;11.904;2022-12-18T06:46:19;12.45;;;5.07;;
59571;SDS011;59406;45.602;11.904;2022-12-18T06:48:49;10.27;;;5.07;;
59571;SDS011;59406;45.602;11.904;2022-12-18T06:51:16;10.35;;;4.68;;
59571;SDS011;59406;45.602;11.904;2022-12-18T06:53:42;11.17;;;5.70;;
59571;SDS011;59406;45.602;11.904;2022-12-18T06:56:08;12.80;;;5.60;;
59571;SDS011;59406;45.602;11.904;2022-12-18T06:58:34;9.48;;;4.65;;
59571;SDS011;59406;45.602;11.904;2022-12-18T07:01:00;10.40;;;5.80;;
59571;SDS011;59406;45.602;11.904;2022-12-18T07:03:28;11.00;;;5.55;;
59571;SDS011;59406;45.602;11.904;2022-12-18T07:05:54;12.18;;;5.60;;
59571;SDS011;59406;45.602;11.904;2022-12-18T07:08:20;13.35;;;6.35;;
59571;SDS011;59406;45.602;11.904;2022-12-18T07:10:46;11.25;;;5.72;;
59571;SDS011;59406;45.602;11.904;2022-12-18T07:13:15;11.10;;;4.77;;
59571;SDS011;59406;45.602;11.904;2022-12-18T07:15:41;12.52;;;5.50;;
59571;SDS011;59406;45.602;11.904;2022-12-18T07:18:08;11.00;;;5.63;;
59571;SDS011;59406;45.602;11.904;2022-12-18T07:20:34;12.18;;;6.13;;
59571;SDS011;59406;45.602;11.904;2022-12-18T07:23:01;11.77;;;5.63;;
59571;SDS011;59406;45.602;11.904;2022-12-18T07:25:28;12.63;;;5.97;;
59571;SDS011;59406;45.602;11.904;2022-12-18T07:27:54;15.45;;;5.82;;
59571;SDS011;59406;45.602;11.904;2022-12-18T07:30:20;13.35;;;5.97;;
59571;SDS011;59406;45.602;11.904;2022-12-18T07:32:46;11.33;;;5.43;;
59571;SDS011;59406;45.602;11.904;2022-12-18T07:35:12;11.15;;;6.20;;
59571;SDS011;59406;45.602;11.904;2022-12-18T07:37:38;14.13;;;6.13;;
59571;SDS011;59406;45.602;11.904;2022-12-18T07:40:04;12.27;;;5.45;;
59571;SDS011;59406;45.602;11.904;2022-12-18T07:42:31;14.70;;;5.90;;
59571;SDS011;59406;45.602;11.904;2022-12-18T07:44:59;11.52;;;5.25;;
59571;SDS011;59406;45.602;11.904;2022-12-18T07:47:26;12.23;;;5.20;;
59571;SDS011;59406;45.602;11.904;2022-12-18T07:49:53;9.97;;;5.03;;
59571;SDS011;59406;45.602;11.904;2022-12-18T07:52:19;12.02;;;5.57;;
59571;SDS011;59406;45.602;11.904;2022-12-18T07:54:45;11.18;;;4.85;;
59571;SDS011;59406;45.602;11.904;2022-12-18T07:57:14;11.27;;;5.05;;
59571;SDS011;59406;45.602;11.904;2022-12-18T07:59:41;12.13;;;5.83;;
59571;SDS011;59406;45.602;11.904;2022-12-18T08:02:07;11.35;;;5.50;;
59571;SDS011;59406;45.602;11.904;2022-12-18T08:04:35;11.98;;;5.88;;
59571;SDS011;59406;45.602;11.904;2022-12-18T08:07:01;13.25;;;5.97;;
59571;SDS011;59406;45.602;11.904;2022-12-18T08:09:27;12.97;;;6.60;;
59571;SDS011;59406;45.602;11.904;2022-12-18T08:11:53;11.35;;;5.90;;
59571;SDS011;59406;45.602;11.904;2022-12-18T08:14:19;11.65;;;6.30;;
59571;SDS011;59406;45.602;11.904;2022-12-18T08:16:46;11.40;;;5.60;;
59571;SDS011;59406;45.602;11.904;2022-12-18T08:19:12;13.82;;;6.10;;
59571;SDS011;59406;45.602;11.904;2022-12-18T08:21:37;10.73;;;5.95;;
59571;SDS011;59406;45.602;11.904;2022-12-18T08:24:06;11.83;;;6.10;;
59571;SDS011;59406;45.602;11.904;2022-12-18T08:26:34;11.65;;;6.22;;
59571;SDS011;59406;45.602;11.904;2022-12-18T08:29:00;13.00;;;6.07;;
59571;SDS011;59406;45.602;11.904;2022-12-18T08:31:26;12.93;;;6.67;;
59571;SDS011;59406;45.602;11.904;2022-12-18T08:33:54;11.80;;;5.78;;
59571;SDS011;59406;45.602;11.904;2022-12-18T08:36:20;11.30;;;6.30;;
59571;SDS011;59406;45.602;11.904;2022-12-18T08:38:47;10.50;;;5.80;;
59571;SDS011;59406;45.602;11.904;2022-12-18T08:41:15;11.43;;;6.00;;
59571;SDS011;59406;45.602;11.904;2022-12-18T08:43:41;10.65;;;5.60;;
59571;SDS011;59406;45.602;11.904;2022-12-18T08:46:26;13.27;;;6.68;;
59571;SDS011;59406;45.602;11.904;2022-12-18T08:48:57;14.57;;;6.75;;
59571;SDS011;59406;45.602;11.904;2022-12-18T08:51:23;11.60;;;6.50;;
59571;SDS011;59406;45.602;11.904;2022-12-18T08:53:48;15.17;;;7.77;;
59571;SDS011;59406;45.602;11.904;2022-12-18T08:56:15;12.05;;;6.20;;
59571;SDS011;59406;45.602;11.904;2022-12-18T08:58:42;13.90;;;7.18;;
59571;SDS011;59406;45.602;11.904;2022-12-18T09:01:09;11.70;;;6.07;;
59571;SDS011;59406;45.602;11.904;2022-12-18T09:03:36;14.18;;;7.00;;
59571;SDS011;59406;45.602;11.904;2022-12-18T09:06:02;13.80;;;6.82;;
59571;SDS011;59406;45.602;11.904;2022-12-18T09:08:29;13.10;;;6.35;;
59571;SDS011;59406;45.602;11.904;2022-12-18T09:10:55;10.73;;;5.63;;
59571;SDS011;59406;45.602;11.904;2022-12-18T09:13:21;11.40;;;6.20;;
59571;SDS011;59406;45.602;11.904;2022-12-18T09:15:48;10.00;;;6.13;;
59571;SDS011;59406;45.602;11.904;2022-12-18T09:18:17;11.55;;;6.20;;
59571;SDS011;59406;45.602;11.904;2022-12-18T09:20:44;11.43;;;6.25;;
59571;SDS011;59406;45.602;11.904;2022-12-18T09:23:11;11.77;;;6.80;;
59571;SDS011;59406;45.602;11.904;2022-12-18T09:25:37;12.68;;;6.50;;
59571;SDS011;59406;45.602;11.904;2022-12-18T09:28:04;13.00;;;6.90;;
59571;SDS011;59406;45.602;11.904;2022-12-18T09:30:41;12.30;;;6.55;;
59571;SDS011;59406;45.602;11.904;2022-12-18T09:33:14;11.55;;;6.53;;
59571;SDS011;59406;45.602;11.904;2022-12-18T09:35:41;12.70;;;7.97;;
59571;SDS011;59406;45.602;11.904;2022-12-18T09:38:08;12.02;;;6.28;;
59571;SDS011;59406;45.602;11.904;2022-12-18T09:40:41;10.48;;;5.70;;
59571;SDS011;59406;45.602;11.904;2022-12-18T09:45:49;9.80;;;5.10;;
59571;SDS011;59406;45.602;11.904;2022-12-18T09:48:20;10.00;;;5.60;;
59571;SDS011;59406;45.602;11.904;2022-12-18T09:50:50;8.98;;;5.63;;
59571;SDS011;59406;45.602;11.904;2022-12-18T09:53:22;10.07;;;5.38;;
59571;SDS011;59406;45.602;11.904;2022-12-18T09:55:51;10.20;;;5.55;;
59571;SDS011;59406;45.602;11.904;2022-12-18T10:01:09;9.90;;;5.50;;
59571;SDS011;59406;45.602;11.904;2022-12-18T10:03:45;9.27;;;5.13;;
59571;SDS011;59406;45.602;11.904;2022-12-18T10:06:12;8.93;;;5.35;;
59571;SDS011;59406;45.602;11.904;2022-12-18T10:09:02;10.20;;;5.85;;
59571;SDS011;59406;45.602;11.904;2022-12-18T10:17:20;10.68;;;5.70;;
59571;SDS011;59406;45.602;11.904;2022-12-18T10:25:22;11.18;;;6.30;;
59571;SDS011;59406;45.602;11.904;2022-12-18T10:27:48;9.87;;;5.63;;
59571;SDS011;59406;45.602;11.904;2022-12-18T10:30:19;10.40;;;6.32;;
59571;SDS011;59406;45.602;11.904;2022-12-18T10:32:47;9.27;;;5.68;;
59571;SDS011;59406;45.602;11.904;2022-12-18T10:35:21;9.45;;;6.03;;
59571;SDS011;59406;45.602;11.904;2022-12-18T10:40:52;10.67;;;6.33;;
59571;SDS011;59406;45.602;11.904;2022-12-18T10:43:25;10.77;;;5.82;;
59571;SDS011;59406;45.602;11.904;2022-12-18T10:48:31;10.43;;;5.80;;
59571;SDS011;59406;45.602;11.904;2022-12-18T10:50:59;9.60;;;4.68;;
59571;SDS011;59406;45.602;11.904;2022-12-18T10:53:27;10.13;;;5.53;;
59571;SDS011;59406;45.602;11.904;2022-12-18T10:55:55;9.20;;;4.88;;
59571;SDS011;59406;45.602;11.904;2022-12-18T11:06:03;10.37;;;5.60;;
59571;SDS011;59406;45.602;11.904;2022-12-18T11:08:32;11.18;;;6.18;;
59571;SDS011;59406;45.602;11.904;2022-12-18T11:10:59;10.82;;;5.43;;
59571;SDS011;59406;45.602;11.904;2022-12-18T11:13:26;9.73;;;5.45;;
59571;SDS011;59406;45.602;11.904;2022-12-18T11:15:54;10.60;;;5.75;;
59571;SDS011;59406;45.602;11.904;2022-12-18T11:18:32;9.60;;;5.50;;
59571;SDS011;59406;45.602;11.904;2022-12-18T11:21:04;11.73;;;5.55;;
59571;SDS011;59406;45.602;11.904;2022-12-18T11:23:32;9.70;;;5.25;;
59571;SDS011;59406;45.602;11.904;2022-12-18T11:26:03;10.95;;;6.38;;
59571;SDS011;59406;45.602;11.904;2022-12-18T11:36:53;9.60;;;5.75;;
59571;SDS011;59406;45.602;11.904;2022-12-18T11:39:36;12.40;;;6.03;;
59571;SDS011;59406;45.602;11.904;2022-12-18T11:45:54;10.80;;;5.23;;
59571;SDS011;59406;45.602;11.904;2022-12-18T11:50:59;8.75;;;5.10;;
59571;SDS011;59406;45.602;11.904;2022-12-18T11:53:28;10.45;;;5.97;;
59571;SDS011;59406;45.602;11.904;2022-12-18T11:58:46;12.53;;;5.87;;
59571;SDS011;59406;45.602;11.904;2022-12-18T12:04:13;9.18;;;5.75;;
59571;SDS011;59406;45.602;11.904;2022-12-18T12:09:46;8.50;;;5.38;;
59571;SDS011;59406;45.602;11.904;2022-12-18T12:15:03;9.50;;;5.07;;
59571;SDS011;59406;45.602;11.904;2022-12-18T12:29:43;9.07;;;5.82;;
59571;SDS011;59406;45.602;11.904;2022-12-18T12:37:15;9.82;;;5.28;;
59571;SDS011;59406;45.602;11.904;2022-12-18T12:39:51;11.87;;;6.47;;
59571;SDS011;59406;45.602;11.904;2022-12-18T12:42:24;8.88;;;5.15;;
59571;SDS011;59406;45.602;11.904;2022-12-18T12:45:21;9.90;;;5.95;;
59571;SDS011;59406;45.602;11.904;2022-12-18T12:47:53;9.40;;;5.38;;
59571;SDS011;59406;45.602;11.904;2022-12-18T12:50:21;9.45;;;6.10;;
59571;SDS011;59406;45.602;11.904;2022-12-18T12:52:52;9.53;;;5.00;;
59571;SDS011;59406;45.602;11.904;2022-12-18T12:55:24;10.15;;;5.68;;
59571;SDS011;59406;45.602;11.904;2022-12-18T13:00:53;10.75;;;5.70;;
59571;SDS011;59406;45.602;11.904;2022-12-18T13:09:03;8.38;;;4.80;;
59571;SDS011;59406;45.602;11.904;2022-12-18T13:11:40;8.75;;;5.47;;
59571;SDS011;59406;45.602;11.904;2022-12-18T13:14:27;8.88;;;4.88;;
59571;SDS011;59406;45.602;11.904;2022-12-18T13:19:44;10.00;;;5.77;;
59571;SDS011;59406;45.602;11.904;2022-12-18T13:22:28;11.10;;;6.55;;
59571;SDS011;59406;45.602;11.904;2022-12-18T13:28:02;10.02;;;5.95;;
59571;SDS011;59406;45.602;11.904;2022-12-18T13:43:53;9.87;;;5.40;;
59571;SDS011;59406;45.602;11.904;2022-12-18T13:46:18;8.67;;;5.17;;
59571;SDS011;59406;45.602;11.904;2022-12-18T13:48:57;10.70;;;6.18;;
59571;SDS011;59406;45.602;11.904;2022-12-18T13:51:33;10.07;;;5.82;;
59571;SDS011;59406;45.602;11.904;2022-12-18T13:54:01;10.30;;;6.18;;
59571;SDS011;59406;45.602;11.904;2022-12-18T13:56:47;10.93;;;6.57;;
59571;SDS011;59406;45.602;11.904;2022-12-18T14:01:59;9.85;;;6.03;;
59571;SDS011;59406;45.602;11.904;2022-12-18T14:04:29;10.43;;;6.15;;
59571;SDS011;59406;45.602;11.904;2022-12-18T14:07:13;11.10;;;6.88;;
59571;SDS011;59406;45.602;11.904;2022-12-18T14:09:42;11.30;;;6.88;;
59571;SDS011;59406;45.602;11.904;2022-12-18T14:12:53;10.17;;;5.77;;
59571;SDS011;59406;45.602;11.904;2022-12-18T14:17:52;9.07;;;5.30;;
59571;SDS011;59406;45.602;11.904;2022-12-18T14:20:20;9.35;;;6.20;;
59571;SDS011;59406;45.602;11.904;2022-12-18T14:22:47;10.35;;;5.78;;
59571;SDS011;59406;45.602;11.904;2022-12-18T14:27:45;12.57;;;7.00;;
59571;SDS011;59406;45.602;11.904;2022-12-18T14:33:02;9.48;;;5.72;;
59571;SDS011;59406;45.602;11.904;2022-12-18T14:35:29;9.98;;;5.75;;
59571;SDS011;59406;45.602;11.904;2022-12-18T14:41:32;10.13;;;5.72;;
59571;SDS011;59406;45.602;11.904;2022-12-18T14:43:41;13.00;;;7.80;;
59571;SDS011;59406;45.602;11.904;2022-12-18T14:49:00;12.20;;;6.70;;
59571;SDS011;59406;45.602;11.904;2022-12-18T14:51:48;11.90;;;6.37;;
59571;SDS011;59406;45.602;11.904;2022-12-18T14:54:34;12.07;;;6.00;;
59571;SDS011;59406;45.602;11.904;2022-12-18T14:57:06;9.65;;;5.50;;
59571;SDS011;59406;45.602;11.904;2022-12-18T14:59:48;10.95;;;6.38;;
59571;SDS011;59406;45.602;11.904;2022-12-18T15:02:18;11.85;;;5.60;;
59571;SDS011;59406;45.602;11.904;2022-12-18T15:05:35;8.50;;;4.80;;
59571;SDS011;59406;45.602;11.904;2022-12-18T15:07:40;10.32;;;4.88;;
59571;SDS011;59406;45.602;11.904;2022-12-18T15:10:17;8.80;;;4.40;;
59571;SDS011;59406;45.602;11.904;2022-12-18T15:12:49;9.07;;;4.70;;
59571;SDS011;59406;45.602;11.904;2022-12-18T15:17:59;10.30;;;5.53;;
59571;SDS011;59406;45.602;11.904;2022-12-18T15:20:26;11.02;;;5.45;;
59571;SDS011;59406;45.602;11.904;2022-12-18T15:22:53;10.02;;;4.65;;
59571;SDS011;59406;45.602;11.904;2022-12-18T15:25:25;10.90;;;4.82;;
59571;SDS011;59406;45.602;11.904;2022-12-18T15:28:02;15.77;;;7.75;;
59571;SDS011;59406;45.602;11.904;2022-12-18T15:30:29;15.03;;;7.03;;
59571;SDS011;59406;45.602;11.904;2022-12-18T15:36:02;10.27;;;5.85;;
59571;SDS011;59406;45.602;11.904;2022-12-18T15:38:31;11.80;;;6.03;;
59571;SDS011;59406;45.602;11.904;2022-12-18T15:40:57;11.80;;;5.72;;
59571;SDS011;59406;45.602;11.904;2022-12-18T15:43:23;12.00;;;5.80;;
59571;SDS011;59406;45.602;11.904;2022-12-18T15:46:03;13.23;;;7.72;;
59571;SDS011;59406;45.602;11.904;2022-12-18T15:48:39;11.32;;;5.47;;
59571;SDS011;59406;45.602;11.904;2022-12-18T15:53:43;13.05;;;6.25;;
59571;SDS011;59406;45.602;11.904;2022-12-18T15:56:12;10.40;;;5.57;;
59571;SDS011;59406;45.602;11.904;2022-12-18T15:58:58;14.63;;;6.32;;
59571;SDS011;59406;45.602;11.904;2022-12-18T16:01:25;9.80;;;5.03;;
59571;SDS011;59406;45.602;11.904;2022-12-18T16:03:54;10.65;;;4.95;;
59571;SDS011;59406;45.602;11.904;2022-12-18T16:06:21;12.63;;;5.78;;
59571;SDS011;59406;45.602;11.904;2022-12-18T16:08:47;10.87;;;5.07;;
59571;SDS011;59406;45.602;11.904;2022-12-18T16:11:23;11.80;;;5.32;;
59571;SDS011;59406;45.602;11.904;2022-12-18T16:14:24;8.73;;;4.00;;
59571;SDS011;59406;45.602;11.904;2022-12-18T16:16:54;15.32;;;6.47;;
59571;SDS011;59406;45.602;11.904;2022-12-18T16:19:23;12.10;;;6.10;;
59571;SDS011;59406;45.602;11.904;2022-12-18T16:21:50;16.03;;;7.87;;
59571;SDS011;59406;45.602;11.904;2022-12-18T16:24:18;18.50;;;9.85;;
59571;SDS011;59406;45.602;11.904;2022-12-18T16:26:47;14.98;;;7.65;;
59571;SDS011;59406;45.602;11.904;2022-12-18T16:29:13;17.30;;;8.30;;
59571;SDS011;59406;45.602;11.904;2022-12-18T16:31:39;20.23;;;9.70;;
59571;SDS011;59406;45.602;11.904;2022-12-18T16:34:09;19.40;;;9.20;;
59571;SDS011;59406;45.602;11.904;2022-12-18T16:36:41;17.45;;;8.18;;
59571;SDS011;59406;45.602;11.904;2022-12-18T16:39:06;19.15;;;9.32;;
59571;SDS011;59406;45.602;11.904;2022-12-18T16:41:32;16.50;;;7.23;;
59571;SDS011;59406;45.602;11.904;2022-12-18T16:43:59;18.27;;;9.43;;
59571;SDS011;59406;45.602;11.904;2022-12-18T16:46:25;16.65;;;7.65;;
59571;SDS011;59406;45.602;11.904;2022-12-18T16:48:51;20.80;;;8.23;;
59571;SDS011;59406;45.602;11.904;2022-12-18T16:51:17;14.98;;;8.13;;
59571;SDS011;59406;45.602;11.904;2022-12-18T16:53:43;17.33;;;8.13;;
59571;SDS011;59406;45.602;11.904;2022-12-18T16:56:09;13.27;;;6.93;;
59571;SDS011;59406;45.602;11.904;2022-12-18T16:58:35;17.85;;;9.60;;
59571;SDS011;59406;45.602;11.904;2022-12-18T17:01:01;15.02;;;8.65;;
59571;SDS011;59406;45.602;11.904;2022-12-18T17:03:31;14.83;;;7.03;;
59571;SDS011;59406;45.602;11.904;2022-12-18T17:06:01;13.35;;;7.50;;
59571;SDS011;59406;45.602;11.904;2022-12-18T17:08:30;16.10;;;8.98;;
59571;SDS011;59406;45.602;11.904;2022-12-18T17:10:57;17.63;;;8.02;;
59571;SDS011;59406;45.602;11.904;2022-12-18T17:13:28;15.57;;;7.07;;
59571;SDS011;59406;45.602;11.904;2022-12-18T17:15:54;17.00;;;9.10;;
59571;SDS011;59406;45.602;11.904;2022-12-18T17:18:25;28.52;;;15.07;;
59571;SDS011;59406;45.602;11.904;2022-12-18T17:20:52;19.52;;;10.43;;
59571;SDS011;59406;45.602;11.904;2022-12-18T17:23:22;16.08;;;7.78;;
59571;SDS011;59406;45.602;11.904;2022-12-18T17:25:48;16.90;;;8.47;;